This is the latest recevied weather packets stored in our database for station/object Aldingen. If no packets are shown the sender has not sent any weather packets the latest 10 day(s).
| Time | Temp. | Humidity | Pressure | Rain* | Wind** | Luminosity | Snow |
|---|---|---|---|---|---|---|---|
| 1777694533 | 3.33° C | 80% | 1022 hPa | 0 mm | - | - | - |
| 1777692731 | 3.89° C | 79% | 1022 hPa | 0 mm | - | - | - |
| 1777690931 | 4.44° C | 77% | 1022 hPa | 0 mm | - | - | - |
| 1777689134 | 4.44° C | 76% | 1022.2 hPa | 0 mm | - | - | - |
| 1777687332 | 5.56° C | 75% | 1022.4 hPa | 0 mm | - | - | - |
| 1777685531 | 6.11° C | 72% | 1022.4 hPa | 0 mm | - | - | - |
| 1777683731 | 7.22° C | 67% | 1022.5 hPa | 0 mm | - | - | - |
| 1777681929 | 8.33° C | 64% | 1022.8 hPa | 0 mm | - | - | - |
| 1777680129 | 8.89° C | 61% | 1022.8 hPa | 0 mm | - | - | - |
| 1777678330 | 11.67° C | 51% | 1022.8 hPa | 0 mm | - | - | - |
| 1777676530 | 13.33° C | 46% | 1022.7 hPa | 0 mm | - | - | - |
| 1777674730 | 13.33° C | 46% | 1022.6 hPa | 0 mm | - | - | - |
| 1777672931 | 14.44° C | 43% | 1022.7 hPa | 0 mm | - | - | - |
| 1777671130 | 14.44° C | 42% | 1022.7 hPa | 0 mm | - | - | - |
| 1777669330 | 15° C | 40% | 1023 hPa | 0 mm | - | - | - |
| 1777667529 | 15° C | 39% | 1023.1 hPa | 0 mm | - | - | - |
| 1777665731 | 15.56° C | 39% | 1022.9 hPa | 0 mm | - | - | - |
| 1777663929 | 13.89° C | 43% | 1022.7 hPa | 0 mm | - | - | - |
| 1777662130 | 15.56° C | 40% | 1022.6 hPa | 0 mm | - | - | - |
| 1777660330 | 17.22° C | 34% | 1022.3 hPa | 0 mm | - | - | - |
| 1777658531 | 18.89° C | 31% | 1022.2 hPa | 0 mm | - | - | - |
| 1777656731 | 19.44° C | 28% | 1022.1 hPa | 0 mm | - | - | - |
| 1777654930 | 20° C | 27% | 1022.2 hPa | 0 mm | - | - | - |
| 1777653129 | 20.56° C | 25% | 1022.4 hPa | 0 mm | - | - | - |
| 1777651330 | 20.56° C | 26% | 1022.5 hPa | 0 mm | - | - | - |
* Rain since midnight (hover to see other rain measurements)
** Current wind speed in m/s (hover to see current wind gust speed)